Time;durP1;ratioP1;P1;durP2;ratioP2;P2;SDS_P1;SDS_P2;PMS_P1;PMS_P2;Temp;Humidity;BMP_temperature;BMP_pressure;BME280_temperature;BME280_humidity;BME280_pressure;Samples;Min_cycle;Max_cycle;Signal;HPM_P1;HPM_P2
2022/12/26 00:00:06;;;;;;;7.60;4.47;;;11.50;99.90;;;;;;5116086;28;20466;-54
2022/12/26 00:02:34;;;;;;;4.57;4.07;;;11.40;99.90;;;;;;5098604;28;20500;-55
2022/12/26 00:05:01;;;;;;;4.97;3.23;;;11.30;99.90;;;;;;5116276;28;20443;-55
2022/12/26 00:07:28;;;;;;;3.57;3.27;;;11.30;99.90;;;;;;5115968;28;20454;-54
2022/12/26 00:09:55;;;;;;;4.70;3.27;;;11.30;99.90;;;;;;5115847;28;20463;-55
2022/12/26 00:12:22;;;;;;;4.67;4.17;;;11.30;99.90;;;;;;5116160;28;20537;-55
2022/12/26 00:14:50;;;;;;;4.87;4.20;;;11.30;99.90;;;;;;5115890;28;21019;-54
2022/12/26 00:17:17;;;;;;;3.90;3.50;;;11.30;99.90;;;;;;5115673;28;20450;-54
2022/12/26 00:19:45;;;;;;;4.17;3.87;;;11.20;99.90;;;;;;5115629;28;20473;-54
2022/12/26 00:22:14;;;;;;;6.40;3.80;;;11.20;99.90;;;;;;5115605;28;20936;-54
2022/12/26 00:24:41;;;;;;;6.40;3.93;;;11.10;99.90;;;;;;5115221;28;20439;-54
2022/12/26 00:27:08;;;;;;;3.90;3.20;;;11.10;99.90;;;;;;5115816;28;20453;-54
2022/12/26 00:29:35;;;;;;;4.50;3.73;;;11.00;99.90;;;;;;5115789;28;20536;-54
2022/12/26 00:32:03;;;;;;;3.53;3.23;;;11.10;99.90;;;;;;5115395;28;20442;-54
2022/12/26 00:34:30;;;;;;;3.80;3.50;;;11.20;99.90;;;;;;5115338;28;20484;-54
2022/12/26 00:36:58;;;;;;;3.63;3.33;;;11.30;99.90;;;;;;5115539;28;20469;-55
2022/12/26 00:39:25;;;;;;;3.80;3.50;;;11.30;99.90;;;;;;5115298;28;20462;-54
2022/12/26 00:41:53;;;;;;;3.70;3.40;;;11.40;99.90;;;;;;5115220;28;20531;-54
2022/12/26 00:44:20;;;;;;;5.13;3.90;;;11.40;99.90;;;;;;5115411;28;20438;-54
2022/12/26 00:46:47;;;;;;;3.80;3.50;;;11.40;99.90;;;;;;5115405;28;20488;-54
2022/12/26 00:49:14;;;;;;;3.40;3.10;;;11.30;99.90;;;;;;5115388;28;20474;-54
2022/12/26 00:51:41;;;;;;;4.37;3.93;;;11.30;99.90;;;;;;5115389;28;20450;-54
2022/12/26 00:54:10;;;;;;;4.13;3.83;;;11.30;99.90;;;;;;5114975;28;20450;-54
2022/12/26 00:56:37;;;;;;;4.00;3.70;;;11.30;99.90;;;;;;5115024;28;20933;-54
2022/12/26 00:59:04;;;;;;;3.40;3.10;;;11.30;99.90;;;;;;5114822;28;20446;-54
2022/12/26 01:01:31;;;;;;;6.77;3.20;;;11.30;99.90;;;;;;5115191;28;20516;-54
2022/12/26 01:03:59;;;;;;;3.77;3.47;;;11.20;99.90;;;;;;5115042;28;20442;-55
2022/12/26 01:06:26;;;;;;;4.23;3.80;;;11.20;99.90;;;;;;5115008;28;20929;-54
2022/12/26 01:08:53;;;;;;;3.30;3.00;;;11.10;99.90;;;;;;5115176;28;20877;-54
2022/12/26 01:14:03;;;;;;;5.60;3.63;;;10.90;99.90;;;;;;5113990;28;20470;-54
2022/12/26 01:16:30;;;;;;;5.07;4.07;;;10.90;99.90;;;;;;5114502;28;20470;-54
2022/12/26 01:18:57;;;;;;;6.20;3.73;;;10.90;99.90;;;;;;5114548;28;20803;-54
2022/12/26 01:21:24;;;;;;;3.93;3.63;;;10.90;99.90;;;;;;5114436;28;20964;-54
2022/12/26 01:23:52;;;;;;;4.20;3.90;;;10.90;99.90;;;;;;5114430;28;20447;-54
2022/12/26 01:26:20;;;;;;;3.80;3.50;;;10.80;99.90;;;;;;5114752;28;20797;-54
2022/12/26 01:28:48;;;;;;;4.00;3.60;;;10.70;99.90;;;;;;5114617;28;20525;-54
2022/12/26 01:31:16;;;;;;;3.87;3.50;;;10.70;99.90;;;;;;5114330;28;20468;-54
2022/12/26 01:33:43;;;;;;;5.90;3.57;;;10.70;99.90;;;;;;5114558;28;20871;-54
2022/12/26 01:36:10;;;;;;;3.70;3.37;;;10.60;99.90;;;;;;5114029;28;20485;-54
2022/12/26 01:38:38;;;;;;;3.80;3.50;;;10.60;99.90;;;;;;5114139;28;20458;-54
2022/12/26 01:41:18;;;;;;;4.30;3.90;;;10.60;99.90;;;;;;5114385;28;20469;-54
2022/12/26 01:43:56;;;;;;;6.27;4.33;;;10.60;99.90;;;;;;5114692;28;20423;-54
2022/12/26 01:46:30;;;;;;;3.53;3.23;;;10.60;99.90;;;;;;5114112;28;20429;-54
2022/12/26 01:49:01;;;;;;;4.20;3.80;;;10.70;99.90;;;;;;5114429;28;20423;-54
2022/12/26 01:51:35;;;;;;;3.80;3.43;;;10.70;99.90;;;;;;5114434;28;20472;-54
2022/12/26 01:54:06;;;;;;;4.07;3.50;;;10.60;99.90;;;;;;5114064;28;20423;-54
2022/12/26 01:56:36;;;;;;;3.70;3.27;;;10.60;99.90;;;;;;5114178;28;20804;-54
2022/12/26 01:59:08;;;;;;;3.80;3.30;;;10.60;99.90;;;;;;5114141;28;20438;-54
2022/12/26 02:01:39;;;;;;;4.90;3.83;;;10.50;99.90;;;;;;5113926;28;20435;-54
2022/12/26 02:06:54;;;;;;;4.13;3.73;;;10.50;99.90;;;;;;5114009;28;20398;-54
2022/12/26 02:09:21;;;;;;;4.43;4.03;;;10.50;99.90;;;;;;5113838;28;20407;-54
2022/12/26 02:11:53;;;;;;;3.37;3.07;;;10.50;99.90;;;;;;5114138;28;20948;-54
2022/12/26 02:14:21;;;;;;;5.60;3.50;;;10.50;99.90;;;;;;5113963;28;20506;-54
2022/12/26 02:16:48;;;;;;;3.77;3.40;;;10.50;99.90;;;;;;5113697;28;21031;-54
2022/12/26 02:19:29;;;;;;;3.50;3.20;;;10.60;99.90;;;;;;5113711;28;20516;-54
2022/12/26 02:22:36;;;;;;;3.40;3.10;;;10.50;99.90;;;;;;5113972;28;20510;-54
2022/12/26 02:25:28;;;;;;;3.60;3.30;;;10.50;99.90;;;;;;5113940;28;20419;-54
2022/12/26 02:28:20;;;;;;;3.63;3.33;;;10.50;99.90;;;;;;5113573;28;20431;-54
2022/12/26 02:30:54;;;;;;;4.83;3.20;;;10.50;99.90;;;;;;5104418;28;20465;-55
2022/12/26 02:33:42;;;;;;;4.10;3.70;;;10.50;99.90;;;;;;5113661;28;20923;-54
2022/12/26 02:36:25;;;;;;;3.67;3.37;;;10.50;99.90;;;;;;5113528;28;20462;-54
2022/12/26 02:39:06;;;;;;;3.77;3.47;;;10.50;99.90;;;;;;5113977;28;20451;-54
2022/12/26 02:41:41;;;;;;;3.27;2.97;;;10.60;99.90;;;;;;5113649;28;20514;-55
2022/12/26 02:47:11;;;;;;;5.07;4.20;;;10.80;99.90;;;;;;5113571;28;20487;-54
2022/12/26 03:15:26;;;;;;;7.73;5.33;;;11.30;99.90;;;;;;5117021;28;20458;-54
2022/12/26 03:17:56;;;;;;;3.50;3.20;;;11.20;99.90;;;;;;5117322;28;20772;-54
2022/12/26 03:20:27;;;;;;;3.80;3.40;;;11.30;99.90;;;;;;5116758;28;20465;-55
2022/12/26 03:22:58;;;;;;;3.73;3.23;;;11.30;99.90;;;;;;5117165;28;20430;-55
2022/12/26 03:28:21;;;;;;;3.63;3.33;;;11.20;99.90;;;;;;5116809;28;20414;-54
2022/12/26 03:30:48;;;;;;;3.37;3.07;;;11.20;99.90;;;;;;5117123;28;20466;-54
2022/12/26 03:35:58;;;;;;;3.57;2.90;;;11.10;99.90;;;;;;5082727;28;20478;-55
2022/12/26 03:38:31;;;;;;;3.43;3.23;;;10.90;99.90;;;;;;5116776;28;20921;-54
2022/12/26 04:44:08;;;;;;;3.80;3.40;;;11.80;99.90;;;;;;5115249;28;20502;-54
2022/12/26 04:46:39;;;;;;;3.53;3.23;;;11.80;99.90;;;;;;5115228;28;20423;-54
2022/12/26 04:51:55;;;;;;;3.13;2.80;;;11.90;99.90;;;;;;5115185;28;20403;-54
2022/12/26 04:54:23;;;;;;;4.13;3.73;;;11.90;99.90;;;;;;5114953;28;20452;-55
2022/12/26 04:56:50;;;;;;;4.80;3.33;;;11.90;99.90;;;;;;5115142;28;20482;-55
2022/12/26 04:59:20;;;;;;;2.93;2.47;;;11.90;99.90;;;;;;5115089;28;20453;-55
2022/12/26 05:10:07;;;;;;;2.93;2.63;;;11.80;99.90;;;;;;5114967;28;20449;-54
2022/12/26 05:12:34;;;;;;;3.23;2.97;;;11.80;99.90;;;;;;5114461;28;20901;-54
2022/12/26 05:15:03;;;;;;;3.10;2.80;;;11.80;99.90;;;;;;5114497;28;20443;-54
2022/12/26 05:28:49;;;;;;;3.50;2.80;;;11.60;99.90;;;;;;5071967;28;20470;-55
2022/12/26 05:31:18;;;;;;;3.33;2.90;;;11.70;99.90;;;;;;5096335;28;20473;-54
2022/12/26 05:36:34;;;;;;;3.67;3.37;;;11.70;99.90;;;;;;5114318;28;20574;-54
2022/12/26 05:39:01;;;;;;;4.13;3.33;;;11.70;99.90;;;;;;5114781;28;20458;-54
2022/12/26 05:41:28;;;;;;;3.30;2.90;;;11.70;99.90;;;;;;5114148;28;20515;-54
2022/12/26 05:43:55;;;;;;;4.20;3.20;;;11.80;99.90;;;;;;5114177;28;20437;-54
2022/12/26 05:46:24;;;;;;;3.30;2.97;;;11.80;99.90;;;;;;5114378;28;20778;-54
2022/12/26 05:48:51;;;;;;;3.03;2.83;;;11.80;99.90;;;;;;5114439;28;20442;-54
2022/12/26 05:51:18;;;;;;;3.00;2.77;;;11.80;99.90;;;;;;5114069;28;20450;-55
2022/12/26 05:53:47;;;;;;;3.50;3.20;;;11.80;99.90;;;;;;5114039;28;20932;-55
2022/12/26 05:56:16;;;;;;;3.60;3.27;;;11.80;99.90;;;;;;5113873;28;20658;-55
2022/12/26 05:58:43;;;;;;;4.07;3.63;;;11.80;99.90;;;;;;5114296;28;20442;-55
2022/12/26 06:01:12;;;;;;;3.50;3.07;;;11.80;99.90;;;;;;5113832;28;20979;-55
2022/12/26 06:03:42;;;;;;;3.10;2.87;;;11.80;99.90;;;;;;5113962;28;20537;-55
2022/12/26 06:06:10;;;;;;;3.27;2.50;;;11.80;99.90;;;;;;5114414;28;20514;-55
2022/12/26 06:08:37;;;;;;;3.20;2.90;;;11.80;99.90;;;;;;5114312;28;20450;-55
2022/12/26 06:11:06;;;;;;;3.90;2.97;;;11.90;99.90;;;;;;5113984;28;20468;-54
2022/12/26 06:13:33;;;;;;;3.23;2.60;;;11.80;99.90;;;;;;5113828;28;20842;-54
2022/12/26 06:16:05;;;;;;;4.37;3.20;;;11.90;99.90;;;;;;5113639;28;20482;-54
2022/12/26 06:18:32;;;;;;;3.30;3.10;;;11.90;99.90;;;;;;5113773;28;20446;-55
2022/12/26 06:21:05;;;;;;;3.43;2.90;;;11.90;99.90;;;;;;5113592;28;20828;-55
2022/12/26 06:23:32;;;;;;;5.00;3.30;;;11.90;99.90;;;;;;5115264;28;20434;-55
2022/12/26 06:25:59;;;;;;;3.20;2.90;;;11.90;99.90;;;;;;5117920;28;20449;-54
2022/12/26 06:28:26;;;;;;;2.97;2.77;;;11.90;99.90;;;;;;5118243;28;20537;-54
2022/12/26 06:30:54;;;;;;;4.00;3.10;;;11.90;99.90;;;;;;5117770;28;20468;-55
2022/12/26 06:33:21;;;;;;;3.47;2.93;;;11.90;99.90;;;;;;5118150;28;20439;-55
2022/12/26 06:35:48;;;;;;;4.10;3.00;;;11.90;99.90;;;;;;5117607;28;20989;-56
2022/12/26 06:38:16;;;;;;;3.70;2.90;;;12.00;99.90;;;;;;5117982;28;20454;-54
2022/12/26 06:40:44;;;;;;;5.30;2.80;;;12.00;99.90;;;;;;5117575;28;20470;-54
2022/12/26 06:43:11;;;;;;;5.20;4.63;;;11.90;99.90;;;;;;5117571;28;20485;-54
2022/12/26 06:45:38;;;;;;;3.17;2.90;;;12.00;99.90;;;;;;5117424;28;20443;-54
2022/12/26 06:48:06;;;;;;;3.00;2.73;;;11.90;99.90;;;;;;5117582;28;20929;-55
2022/12/26 06:50:36;;;;;;;3.83;3.43;;;12.00;99.90;;;;;;5117387;28;20980;-54
2022/12/26 06:53:07;;;;;;;3.37;3.00;;;12.00;99.90;;;;;;5117825;28;20431;-54
2022/12/26 06:55:36;;;;;;;3.93;2.90;;;12.00;99.90;;;;;;5117529;28;20469;-54
2022/12/26 06:58:03;;;;;;;3.53;2.97;;;12.00;99.90;;;;;;5117393;28;20959;-54
2022/12/26 07:00:30;;;;;;;3.43;2.90;;;12.00;99.90;;;;;;5117517;28;20553;-54
2022/12/26 07:02:57;;;;;;;3.13;2.60;;;12.00;99.90;;;;;;5117286;28;20442;-55
2022/12/26 07:05:24;;;;;;;3.47;3.17;;;12.10;99.90;;;;;;5117136;28;20455;-54
2022/12/26 07:07:52;;;;;;;2.90;2.70;;;12.10;99.90;;;;;;5117516;28;20450;-55
2022/12/26 07:10:19;;;;;;;3.60;3.00;;;12.10;99.90;;;;;;5117309;28;20799;-55
2022/12/26 07:12:48;;;;;;;3.10;2.90;;;12.10;99.90;;;;;;5117359;28;20818;-55
2022/12/26 07:15:16;;;;;;;3.27;2.97;;;12.10;99.90;;;;;;5116834;28;20450;-54
2022/12/26 07:17:43;;;;;;;3.30;3.00;;;12.10;99.90;;;;;;5116909;28;20992;-54
2022/12/26 07:20:11;;;;;;;3.53;3.23;;;12.10;99.90;;;;;;5117211;28;20458;-54
2022/12/26 07:22:38;;;;;;;5.80;3.27;;;12.10;99.90;;;;;;5117095;28;20487;-55
2022/12/26 07:25:06;;;;;;;3.23;2.50;;;12.10;99.90;;;;;;5117114;28;20446;-55
2022/12/26 07:27:33;;;;;;;4.07;2.57;;;12.10;99.90;;;;;;5116753;28;20443;-55
2022/12/26 07:30:02;;;;;;;3.30;2.70;;;12.10;99.90;;;;;;5116717;28;20545;-55
2022/12/26 07:32:29;;;;;;;3.17;2.87;;;12.10;99.90;;;;;;5116677;28;20439;-55
2022/12/26 07:34:56;;;;;;;3.50;3.20;;;12.10;99.90;;;;;;5116691;28;20431;-55
2022/12/26 07:37:23;;;;;;;4.07;3.20;;;12.10;99.90;;;;;;5116671;28;20492;-55
2022/12/26 07:39:50;;;;;;;3.43;3.13;;;12.10;99.90;;;;;;5116561;28;20972;-55
2022/12/26 07:42:19;;;;;;;3.30;3.00;;;12.10;99.90;;;;;;5115512;28;20478;-54
2022/12/26 07:44:46;;;;;;;4.23;3.13;;;12.10;99.90;;;;;;5116710;28;20447;-55
2022/12/26 07:47:18;;;;;;;6.10;3.00;;;12.10;99.90;;;;;;5116297;28;20434;-55
2022/12/26 07:49:45;;;;;;;3.23;2.93;;;12.10;99.90;;;;;;5116401;28;20498;-55
2022/12/26 07:52:13;;;;;;;4.10;3.70;;;12.10;99.90;;;;;;5116449;28;20933;-55
2022/12/26 07:54:40;;;;;;;5.00;3.70;;;12.10;99.90;;;;;;5116641;28;20454;-54
2022/12/26 07:57:07;;;;;;;3.00;2.50;;;12.10;99.90;;;;;;5116111;28;20466;-54
2022/12/26 07:59:34;;;;;;;4.37;3.13;;;12.10;99.90;;;;;;5116122;28;20969;-55
2022/12/26 08:02:03;;;;;;;2.93;2.63;;;12.10;99.90;;;;;;5116370;28;20495;-54
2022/12/26 08:04:33;;;;;;;4.30;3.07;;;12.10;99.90;;;;;;5116421;28;20450;-55
2022/12/26 08:07:00;;;;;;;4.40;3.27;;;12.10;99.90;;;;;;5116293;28;20442;-55
2022/12/26 08:09:27;;;;;;;4.10;3.70;;;12.10;99.90;;;;;;5116412;28;20516;-55
2022/12/26 08:11:54;;;;;;;3.53;3.23;;;12.10;99.90;;;;;;5116225;28;20442;-55
2022/12/26 08:14:21;;;;;;;3.60;3.30;;;12.00;99.90;;;;;;5116273;28;20447;-55
2022/12/26 08:16:48;;;;;;;3.13;2.93;;;11.90;99.90;;;;;;5115818;28;21011;-54
2022/12/26 08:19:15;;;;;;;3.83;3.33;;;11.90;99.90;;;;;;5115757;28;20806;-55
2022/12/26 08:21:44;;;;;;;3.50;3.10;;;11.90;99.90;;;;;;5115933;28;20430;-55
2022/12/26 08:24:12;;;;;;;3.40;3.10;;;11.90;99.90;;;;;;5116037;28;20447;-55
2022/12/26 08:26:39;;;;;;;4.33;3.80;;;11.90;99.90;;;;;;5115870;28;20512;-55
2022/12/26 08:29:06;;;;;;;3.20;3.00;;;11.90;99.90;;;;;;5115980;28;20447;-55
2022/12/26 08:31:33;;;;;;;5.90;4.13;;;11.90;99.90;;;;;;5115664;28;20454;-55
2022/12/26 08:34:01;;;;;;;3.93;3.30;;;11.90;99.90;;;;;;5115926;28;20454;-55
2022/12/26 08:36:28;;;;;;;4.47;3.93;;;11.90;99.90;;;;;;5115383;28;20811;-55
2022/12/26 08:38:58;;;;;;;4.20;3.77;;;11.80;99.90;;;;;;5115882;28;20451;-55
2022/12/26 08:41:25;;;;;;;4.37;3.97;;;11.90;99.90;;;;;;5115376;28;20459;-55
2022/12/26 08:43:53;;;;;;;4.10;3.70;;;11.90;99.90;;;;;;5115209;28;20963;-55
2022/12/26 08:46:21;;;;;;;4.10;3.80;;;11.90;99.90;;;;;;5114879;28;20481;-54
2022/12/26 08:48:50;;;;;;;4.10;3.77;;;11.90;99.90;;;;;;5115418;28;20446;-54
2022/12/26 08:51:19;;;;;;;4.90;3.60;;;11.90;99.90;;;;;;5115361;28;20553;-54
2022/12/26 08:53:48;;;;;;;4.10;3.70;;;11.90;99.90;;;;;;5115298;28;20529;-55
2022/12/26 08:56:18;;;;;;;3.60;3.30;;;11.80;99.90;;;;;;5115310;28;20453;-55
2022/12/26 08:58:46;;;;;;;3.73;3.43;;;11.80;99.90;;;;;;5115400;28;20452;-54
2022/12/26 09:01:15;;;;;;;5.00;3.47;;;11.80;99.90;;;;;;5115401;28;20466;-55
2022/12/26 09:03:44;;;;;;;4.07;3.67;;;11.80;99.90;;;;;;5115199;28;20449;-55
2022/12/26 09:06:12;;;;;;;4.03;3.73;;;11.80;99.90;;;;;;5115156;28;20443;-55
2022/12/26 09:08:40;;;;;;;4.07;3.73;;;11.80;99.90;;;;;;5115438;28;20819;-55
2022/12/26 09:11:09;;;;;;;3.77;3.47;;;11.80;99.90;;;;;;5115116;28;20557;-54
2022/12/26 09:13:39;;;;;;;3.87;3.50;;;11.60;99.90;;;;;;5115092;28;20447;-55
2022/12/26 09:16:09;;;;;;;3.83;3.47;;;11.60;99.90;;;;;;5114971;28;20550;-54
2022/12/26 09:18:36;;;;;;;3.73;3.43;;;11.60;99.90;;;;;;5114924;28;20484;-54
2022/12/26 09:21:05;;;;;;;4.97;3.70;;;11.60;99.90;;;;;;5114533;28;20462;-56
2022/12/26 09:23:33;;;;;;;4.97;4.30;;;11.50;99.90;;;;;;5115067;28;20465;-56
2022/12/26 09:26:05;;;;;;;6.50;4.53;;;11.50;99.90;;;;;;5114879;28;20446;-56
2022/12/26 09:28:32;;;;;;;4.90;4.30;;;11.50;99.90;;;;;;5114537;28;20928;-56
2022/12/26 09:31:02;;;;;;;9.27;4.13;;;11.40;99.90;;;;;;5114315;28;21039;-55
2022/12/26 09:33:32;;;;;;;6.07;4.80;;;11.40;99.90;;;;;;5114379;28;20449;-56
2022/12/26 09:35:59;;;;;;;4.10;3.70;;;11.40;99.90;;;;;;5114557;28;20519;-55
2022/12/26 09:38:26;;;;;;;4.50;4.10;;;11.40;99.90;;;;;;5114670;28;20486;-55
2022/12/26 09:41:08;;;;;;;5.30;4.13;;;11.50;99.90;;;;;;5114228;28;20980;-55
2022/12/26 09:43:51;;;;;;;4.17;3.77;;;11.40;99.90;;;;;;5114265;28;20466;-55
2022/12/26 09:46:30;;;;;;;6.70;4.23;;;11.40;99.90;;;;;;5114359;28;20436;-55
2022/12/26 09:49:02;;;;;;;4.50;4.10;;;11.40;99.90;;;;;;5114165;28;20514;-54
2022/12/26 09:51:31;;;;;;;5.10;4.60;;;11.50;99.90;;;;;;5114316;28;20495;-55
2022/12/26 09:54:01;;;;;;;5.07;4.57;;;11.40;99.90;;;;;;5114219;28;20446;-55
2022/12/26 09:56:32;;;;;;;4.97;4.57;;;11.40;99.90;;;;;;5114080;28;20786;-55
2022/12/26 09:59:05;;;;;;;4.37;3.97;;;11.30;99.90;;;;;;5113018;28;20438;-55
2022/12/26 10:01:36;;;;;;;5.80;5.30;;;11.20;99.90;;;;;;5114090;28;20893;-54
2022/12/26 10:04:07;;;;;;;5.80;4.60;;;;;;;;;;5114382;28;20529;-55
2022/12/26 10:06:38;;;;;;;6.13;4.77;;;10.90;99.90;;;;;;5114432;28;20432;-56
2022/12/26 10:09:22;;;;;;;5.60;5.10;;;10.90;99.90;;;;;;5114384;28;20454;-55
2022/12/26 10:12:17;;;;;;;7.20;5.43;;;10.90;99.90;;;;;;5113911;28;20769;-54
2022/12/26 10:14:53;;;;;;;7.00;5.10;;;10.80;99.90;;;;;;5113718;28;20885;-55
2022/12/26 10:17:29;;;;;;;6.50;4.70;;;10.80;99.90;;;;;;5113742;28;20822;-56
2022/12/26 10:20:12;;;;;;;5.13;4.67;;;10.70;99.90;;;;;;5113825;28;20489;-55
2022/12/26 10:23:12;;;;;;;4.83;4.10;;;10.60;99.90;;;;;;5114019;28;20431;-55
2022/12/26 10:25:43;;;;;;;9.10;3.83;;;10.70;99.90;;;;;;5114064;28;20433;-55
2022/12/26 10:28:18;;;;;;;4.00;3.53;;;10.60;99.90;;;;;;5113626;28;20513;-55
2022/12/26 10:30:47;;;;;;;4.40;3.83;;;10.70;99.90;;;;;;5113647;28;20449;-55
2022/12/26 10:33:20;;;;;;;4.17;3.80;;;10.70;99.90;;;;;;5113947;28;20439;-55
2022/12/26 10:35:47;;;;;;;5.03;3.93;;;10.80;99.90;;;;;;5113983;28;20518;-55
2022/12/26 10:38:25;;;;;;;4.97;4.00;;;10.80;99.90;;;;;;5113737;28;20482;-55
2022/12/26 10:40:56;;;;;;;6.43;3.97;;;10.90;99.90;;;;;;5113808;28;20494;-56
2022/12/26 10:43:28;;;;;;;6.50;4.27;;;10.90;99.90;;;;;;5113340;28;20475;-56
2022/12/26 10:46:38;;;;;;;4.00;3.60;;;10.90;99.90;;;;;;5113469;28;20476;-55
2022/12/26 10:49:10;;;;;;;4.80;3.83;;;10.90;99.90;;;;;;5030965;28;20446;-55
2022/12/26 10:51:38;;;;;;;4.93;4.53;;;10.90;99.90;;;;;;5096181;28;20450;-56
2022/12/26 10:54:15;;;;;;;4.07;3.67;;;11.00;99.90;;;;;;5113322;28;20503;-55
2022/12/26 10:56:43;;;;;;;4.13;3.73;;;11.00;99.90;;;;;;5113456;28;20431;-55
2022/12/26 10:59:16;;;;;;;4.73;3.60;;;11.10;99.90;;;;;;5113578;28;20482;-55
2022/12/26 11:01:47;;;;;;;4.30;3.53;;;11.10;99.90;;;;;;5113341;28;20920;-55
2022/12/26 11:04:21;;;;;;;3.80;3.33;;;11.10;99.90;;;;;;5113305;28;20437;-55
2022/12/26 11:06:51;;;;;;;3.63;3.33;;;11.10;99.90;;;;;;5113492;28;20431;-55
2022/12/26 11:09:34;;;;;;;4.13;3.40;;;11.10;99.90;;;;;;5114303;28;20900;-55
2022/12/26 11:12:02;;;;;;;3.13;2.93;;;11.10;99.90;;;;;;5117201;28;20438;-55
2022/12/26 11:14:41;;;;;;;7.40;3.83;;;11.10;99.90;;;;;;5117339;28;20452;-55
2022/12/26 11:17:13;;;;;;;5.83;3.13;;;11.00;99.90;;;;;;5117024;28;20949;-56
2022/12/26 11:19:43;;;;;;;3.60;3.20;;;11.10;99.90;;;;;;5117208;28;20467;-56
2022/12/26 11:22:25;;;;;;;3.83;3.40;;;11.00;99.90;;;;;;5117350;28;20437;-55
2022/12/26 11:25:23;;;;;;;5.80;3.13;;;11.10;99.90;;;;;;5116912;28;20537;-54
2022/12/26 11:27:53;;;;;;;4.43;3.50;;;11.20;99.90;;;;;;5034210;28;20513;-55
2022/12/26 11:30:30;;;;;;;3.00;2.70;;;11.20;99.90;;;;;;5099793;28;20824;-55
2022/12/26 11:33:21;;;;;;;2.27;2.07;;;11.20;99.90;;;;;;5117054;28;20754;-55
2022/12/26 11:36:01;;;;;;;4.33;2.70;;;11.20;99.90;;;;;;5116700;28;20976;-55
2022/12/26 11:38:35;;;;;;;9.87;4.70;;;11.20;99.90;;;;;;5116798;28;20568;-55
2022/12/26 11:43:50;;;;;;;2.47;2.27;;;11.30;99.90;;;;;;5116382;28;20516;-55
2022/12/26 11:46:18;;;;;;;3.07;2.00;;;11.20;99.90;;;;;;5116776;28;20573;-55
2022/12/26 11:48:49;;;;;;;2.17;1.97;;;11.20;99.90;;;;;;5116678;28;20443;-55
2022/12/26 11:51:36;;;;;;;1.97;1.80;;;11.20;99.90;;;;;;5116641;28;20523;-55
2022/12/26 11:54:23;;;;;;;2.10;1.90;;;11.20;99.90;;;;;;5116315;28;20928;-55
2022/12/26 11:57:14;;;;;;;2.07;1.87;;;11.10;99.90;;;;;;5116211;28;20933;-55
2022/12/26 11:59:41;;;;;;;2.03;1.90;;;11.10;99.90;;;;;;5116564;28;20463;-55
2022/12/26 12:02:29;;;;;;;2.73;2.50;;;11.10;99.90;;;;;;5116449;28;20445;-55
2022/12/26 12:05:01;;;;;;;2.70;2.30;;;11.10;99.90;;;;;;5116370;28;20514;-55
2022/12/26 12:07:47;;;;;;;2.37;1.93;;;11.10;99.90;;;;;;5116287;28;20794;-54
2022/12/26 12:10:59;;;;;;;3.10;2.10;;;11.20;99.90;;;;;;5116196;28;20462;-55
2022/12/26 12:14:01;;;;;;;2.27;2.07;;;11.30;99.90;;;;;;5109210;28;20447;-55
2022/12/26 12:16:59;;;;;;;1.97;1.87;;;11.20;99.90;;;;;;5115657;28;20450;-55
2022/12/26 12:19:37;;;;;;;2.00;1.87;;;11.40;99.90;;;;;;5116129;28;20492;-55
2022/12/26 12:22:18;;;;;;;3.93;2.90;;;11.50;99.90;;;;;;5114878;28;20437;-55
2022/12/26 12:25:05;;;;;;;3.23;2.47;;;11.60;99.90;;;;;;5115960;28;20431;-55
2022/12/26 12:27:36;;;;;;;3.10;2.50;;;11.70;99.90;;;;;;5115448;28;20522;-56
2022/12/26 12:30:19;;;;;;;2.93;2.60;;;11.70;99.90;;;;;;5115838;28;20458;-54
2022/12/26 12:33:14;;;;;;;2.13;1.93;;;11.60;99.90;;;;;;5115601;28;20423;-54
2022/12/26 12:35:53;;;;;;;2.10;1.87;;;11.70;99.90;;;;;;5115458;28;20438;-54
2022/12/26 12:38:31;;;;;;;2.03;1.83;;;11.60;99.90;;;;;;5115772;28;20490;-54
2022/12/26 12:41:15;;;;;;;2.27;2.07;;;11.50;99.90;;;;;;5115643;28;20462;-53
2022/12/26 12:43:49;;;;;;;2.03;1.60;;;11.50;99.90;;;;;;5115722;28;20535;-54
2022/12/26 12:46:23;;;;;;;1.60;1.50;;;11.60;99.90;;;;;;5115548;28;20423;-54
2022/12/26 12:49:11;;;;;;;1.90;1.73;;;11.60;99.90;;;;;;5115664;28;20425;-54
2022/12/26 12:51:46;;;;;;;1.77;1.67;;;11.60;99.90;;;;;;5115383;28;20518;-54
2022/12/26 12:54:46;;;;;;;1.70;1.60;;;11.60;99.90;;;;;;5115060;28;20442;-54
2022/12/26 12:57:22;;;;;;;2.13;1.67;;;11.60;99.90;;;;;;5080745;28;20989;-54
2022/12/26 13:00:02;;;;;;;3.97;1.57;;;11.60;99.90;;;;;;5115072;28;21063;-54
2022/12/26 13:02:36;;;;;;;2.73;1.63;;;11.60;99.90;;;;;;5115279;28;20453;-54
2022/12/26 13:05:16;;;;;;;2.20;1.77;;;11.60;99.90;;;;;;5114898;28;20924;-53
2022/12/26 13:07:49;;;;;;;3.10;2.10;;;11.60;99.90;;;;;;5115209;28;20466;-54
2022/12/26 13:10:21;;;;;;;1.77;1.60;;;11.60;99.90;;;;;;5114671;28;20466;-54
2022/12/26 13:12:51;;;;;;;1.50;1.40;;;11.60;99.90;;;;;;5114803;28;20435;-54
2022/12/26 13:15:28;;;;;;;1.70;1.60;;;11.60;99.90;;;;;;5114983;28;20430;-54
2022/12/26 13:18:02;;;;;;;1.80;1.60;;;11.60;99.90;;;;;;5115017;28;20503;-54
2022/12/26 13:20:37;;;;;;;1.50;1.40;;;11.60;99.90;;;;;;5114902;28;20549;-54
2022/12/26 13:26:06;;;;;;;1.63;1.53;;;11.60;99.90;;;;;;5114677;28;20406;-54
2022/12/26 13:28:41;;;;;;;1.60;1.40;;;11.60;99.90;;;;;;5114792;28;20427;-54
2022/12/26 13:31:08;;;;;;;1.60;1.50;;;11.50;99.90;;;;;;5114294;28;20831;-54
2022/12/26 13:33:35;;;;;;;2.27;1.40;;;11.50;99.90;;;;;;5114222;28;20537;-54
2022/12/26 13:36:05;;;;;;;1.60;1.40;;;11.50;99.90;;;;;;5114209;28;20804;-54
2022/12/26 13:39:16;;;;;;;2.03;1.60;;;11.50;99.90;;;;;;5114547;28;20504;-54
2022/12/26 13:44:34;;;;;;;3.10;1.50;;;11.50;99.90;;;;;;5114343;28;20410;-54
2022/12/26 13:47:02;;;;;;;1.60;1.40;;;11.60;99.90;;;;;;5114360;28;20778;-54
2022/12/26 13:49:36;;;;;;;1.70;1.60;;;11.60;99.90;;;;;;5114147;28;20497;-54
2022/12/26 13:52:24;;;;;;;1.60;1.50;;;11.60;99.90;;;;;;5114371;28;20427;-54
2022/12/26 13:55:31;;;;;;;1.67;1.50;;;11.50;99.90;;;;;;5114451;28;20880;-54
2022/12/26 13:58:30;;;;;;;1.60;1.50;;;11.50;99.90;;;;;;5114084;28;20484;-54
2022/12/26 14:01:05;;;;;;;8.70;6.90;;;11.50;99.90;;;;;;5098554;28;20832;-54
2022/12/26 14:04:02;;;;;;;2.07;1.97;;;11.60;99.90;;;;;;5114284;28;20505;-53
2022/12/26 14:07:00;;;;;;;2.50;1.93;;;11.50;99.90;;;;;;5107238;28;20463;-56
2022/12/26 14:09:51;;;;;;;1.87;1.60;;;11.50;99.90;;;;;;5110525;28;20467;-54
2022/12/26 14:12:54;;;;;;;2.33;2.13;;;11.50;99.90;;;;;;5104366;28;20453;-54
2022/12/26 14:15:31;;;;;;;2.20;2.07;;;11.50;99.90;;;;;;5113824;28;20445;-54
2022/12/26 14:18:16;;;;;;;2.43;2.03;;;11.50;99.90;;;;;;5113998;28;20433;-54
2022/12/26 14:20:50;;;;;;;2.10;1.90;;;11.50;99.90;;;;;;5113645;28;20549;-54
2022/12/26 14:23:36;;;;;;;1.90;1.80;;;11.50;99.90;;;;;;5113790;28;20423;-54
2022/12/26 14:26:14;;;;;;;2.10;1.90;;;11.40;99.90;;;;;;5114155;28;20431;-54
2022/12/26 14:28:53;;;;;;;1.97;1.80;;;11.40;99.90;;;;;;5113671;28;20889;-54
2022/12/26 14:31:28;;;;;;;2.40;2.20;;;11.40;99.90;;;;;;5113544;28;20470;-54
2022/12/26 14:34:01;;;;;;;1.73;1.57;;;11.40;99.90;;;;;;5113926;28;20427;-54
2022/12/26 14:36:39;;;;;;;2.07;1.90;;;11.40;99.90;;;;;;5113831;28;20434;-54
2022/12/26 14:39:20;;;;;;;2.17;1.97;;;11.40;99.90;;;;;;5113575;28;20455;-54
2022/12/26 14:45:04;;;;;;;2.17;1.97;;;11.40;99.90;;;;;;5116129;28;20460;-54
2022/12/26 14:47:40;;;;;;;1.93;1.83;;;11.40;99.90;;;;;;5117379;28;20960;-54
2022/12/26 14:50:38;;;;;;;1.70;1.60;;;11.40;99.90;;;;;;5117854;28;20454;-54
2022/12/26 14:53:31;;;;;;;2.23;1.80;;;11.40;99.90;;;;;;5117775;28;20430;-54
2022/12/26 14:56:00;;;;;;;1.70;1.60;;;11.40;99.90;;;;;;5117474;28;20908;-54
2022/12/26 14:58:42;;;;;;;1.97;1.80;;;11.40;99.90;;;;;;5117410;28;20486;-54
2022/12/26 15:01:48;;;;;;;2.60;1.83;;;11.40;99.90;;;;;;5117530;28;20470;-53
2022/12/26 15:04:47;;;;;;;1.77;1.67;;;11.30;99.90;;;;;;5117564;28;20452;-54
2022/12/26 15:07:42;;;;;;;2.20;2.00;;;11.30;99.90;;;;;;5117086;28;20450;-54
2022/12/26 15:10:40;;;;;;;1.90;1.70;;;11.30;99.90;;;;;;5117444;28;20455;-54
2022/12/26 15:13:41;;;;;;;2.40;2.20;;;11.30;99.90;;;;;;5117351;28;20442;-54
2022/12/26 15:16:28;;;;;;;2.03;1.93;;;11.20;99.90;;;;;;5090961;28;20444;-54
2022/12/26 15:19:43;;;;;;;2.40;2.10;;;11.20;99.90;;;;;;5117170;28;20463;-54
2022/12/26 15:22:46;;;;;;;3.63;2.10;;;11.20;99.90;;;;;;5091463;28;20824;-54
2022/12/26 15:25:41;;;;;;;2.30;2.10;;;11.20;99.90;;;;;;5116845;28;20805;-53
2022/12/26 15:28:44;;;;;;;2.70;2.47;;;11.10;99.90;;;;;;5082088;28;20450;-54
2022/12/26 15:31:28;;;;;;;5.40;2.40;;;11.10;99.90;;;;;;5116822;28;20458;-54
2022/12/26 15:34:00;;;;;;;2.40;2.20;;;11.10;99.90;;;;;;5116610;28;20970;-54
2022/12/26 15:36:35;;;;;;;2.80;2.60;;;11.10;99.90;;;;;;5116984;28;20424;-54
2022/12/26 15:39:12;;;;;;;2.13;1.93;;;11.10;99.90;;;;;;5116977;28;20499;-54
2022/12/26 15:41:47;;;;;;;2.20;2.00;;;11.10;99.90;;;;;;5116718;28;20427;-55